createdAt,value
2016-08-02T00:00:37.903Z,78.42
2016-08-02T00:01:37.914Z,78.8
2016-08-02T00:02:37.894Z,78.42
2016-08-02T00:03:37.910Z,78.13
2016-08-02T00:04:37.896Z,78.13
2016-08-02T00:05:37.890Z,78.13
2016-08-02T00:06:37.892Z,78.32
2016-08-02T00:07:37.883Z,78.32
2016-08-02T00:09:37.878Z,77.36
2016-08-02T00:10:37.876Z,77.36
2016-08-02T00:11:37.874Z,77.46
2016-08-02T00:12:37.871Z,77.75
2016-08-02T00:13:52.785Z,77.55
2016-08-02T00:14:37.865Z,76.69
2016-08-02T00:15:37.861Z,77.08
2016-08-02T00:16:52.779Z,76.98
2016-08-02T00:17:37.876Z,76.6
2016-08-02T00:18:37.856Z,76.69
2016-08-02T00:19:37.904Z,76.79
2016-08-02T00:20:37.850Z,76.21
2016-08-02T00:21:37.863Z,76.5
2016-08-02T00:22:37.848Z,76.31
2016-08-02T00:24:38.840Z,76.31
2016-08-02T00:26:37.836Z,76.12
2016-08-02T00:27:37.835Z,76.5
2016-08-02T00:28:37.829Z,76.12
2016-08-02T00:29:37.876Z,76.02
2016-08-02T00:30:37.829Z,76.12
2016-08-02T00:31:37.827Z,76.02
2016-08-02T00:32:37.822Z,75.73
2016-08-02T00:33:38.363Z,75.45
2016-08-02T00:34:37.818Z,75.64
2016-08-02T00:35:37.817Z,75.64
2016-08-02T00:36:38.346Z,75.73
2016-08-02T00:37:37.813Z,75.54
2016-08-02T00:39:37.805Z,75.07
2016-08-02T00:40:37.805Z,75.07
2016-08-02T00:41:39.465Z,75.07
2016-08-02T00:43:38.245Z,75.93
2016-08-02T00:44:38.520Z,75.83
2016-08-02T00:45:37.793Z,75.45
2016-08-02T00:46:37.787Z,75.54
2016-08-02T00:47:37.785Z,75.93
2016-08-02T00:48:37.779Z,75.98
2016-08-02T00:49:37.778Z,76.08
2016-08-02T00:50:37.773Z,76.27
2016-08-02T00:51:37.778Z,76.46
2016-08-02T00:52:37.773Z,76.75
2016-08-02T00:53:37.771Z,76.84
2016-08-02T00:54:37.767Z,76.65
2016-08-02T00:55:37.763Z,77.04
2016-08-02T00:56:37.761Z,76.84
2016-08-02T00:57:37.761Z,77.61
2016-08-02T00:58:37.754Z,77.67
2016-08-02T00:59:37.757Z,77.86
2016-08-02T01:00:37.748Z,77.86
2016-08-02T01:01:37.745Z,78.34
2016-08-02T01:02:37.746Z,78.63
2016-08-02T01:03:37.741Z,78.34
2016-08-02T01:04:37.737Z,78.63
2016-08-02T01:05:37.732Z,79
2016-08-02T01:06:37.735Z,78.91
2016-08-02T01:07:37.726Z,79.25
2016-08-02T01:08:37.723Z,79.35
2016-08-02T01:09:37.724Z,79.54
2016-08-02T01:10:37.717Z,80.02
2016-08-02T01:11:37.718Z,79.93
2016-08-02T01:12:37.712Z,79.73
2016-08-02T01:13:37.716Z,80.21
2016-08-02T01:14:37.711Z,80.69
2016-08-02T01:15:37.704Z,80.4
2016-08-02T01:16:37.710Z,80.4
2016-08-02T01:17:37.702Z,80.59
2016-08-02T01:18:37.696Z,80.79
2016-08-02T01:19:37.693Z,80.74
2016-08-02T01:20:37.694Z,81.03
2016-08-02T01:21:37.699Z,80.65
2016-08-02T01:22:37.684Z,81.6
2016-08-02T01:23:37.678Z,80.74
2016-08-02T01:24:37.681Z,81.13
2016-08-02T01:25:37.670Z,81.22
2016-08-02T01:26:37.671Z,81.41
2016-08-02T01:27:37.668Z,81.32
2016-08-02T01:28:37.670Z,81.51
2016-08-02T01:29:37.658Z,81.41
2016-08-02T01:30:37.658Z,81.22
2016-08-02T01:31:37.653Z,81.6
2016-08-02T01:32:37.650Z,81.6
2016-08-02T01:33:37.648Z,81.89
2016-08-02T01:34:37.640Z,81.7
2016-08-02T01:35:38.341Z,81.89
2016-08-02T01:36:37.631Z,82.18
2016-08-02T01:37:37.630Z,82.32
2016-08-02T01:38:37.623Z,82.52
2016-08-02T01:39:37.625Z,82.65
2016-08-02T01:40:37.621Z,82.32
2016-08-02T01:41:37.614Z,82.61
2016-08-02T01:42:37.612Z,82.81
2016-08-02T01:43:37.610Z,82.81
2016-08-02T01:44:37.605Z,82.71
2016-08-02T01:45:37.599Z,83.18
2016-08-02T01:46:37.597Z,83
2016-08-02T01:47:37.591Z,83
2016-08-02T01:48:37.590Z,83
2016-08-02T01:49:37.587Z,82.71
2016-08-02T01:50:39.103Z,82.81
2016-08-02T01:51:37.578Z,83
2016-08-02T01:52:39.061Z,83.76
2016-08-02T01:53:37.572Z,83.76
2016-08-02T01:54:37.569Z,83.18
2016-08-02T01:55:37.566Z,83.38
2016-08-02T01:56:37.659Z,83.38
2016-08-02T01:57:37.557Z,84.05
2016-08-02T01:58:37.555Z,84.23
2016-08-02T01:59:37.553Z,84.14
2016-08-02T02:01:39.063Z,83.86
2016-08-02T02:02:38.502Z,83.76
2016-08-02T02:03:38.453Z,83.86
2016-08-02T02:04:38.273Z,83.76
2016-08-02T02:05:37.526Z,83.86
2016-08-02T02:06:37.937Z,84.14
2016-08-02T02:07:37.521Z,84.43
2016-08-02T02:08:37.518Z,84.43
2016-08-02T02:09:37.515Z,83.95
2016-08-02T02:10:37.510Z,84.14
2016-08-02T02:11:37.504Z,84.23
2016-08-02T02:12:37.506Z,84.14
2016-08-02T02:13:37.497Z,84.14
2016-08-02T02:14:37.496Z,84.23
2016-08-02T02:15:37.489Z,84.23
2016-08-02T02:16:37.487Z,84.62
2016-08-02T02:17:37.479Z,84.81
2016-08-02T02:18:37.477Z,85
2016-08-02T02:19:37.471Z,84.72
2016-08-02T02:20:37.469Z,84.81
2016-08-02T02:21:37.470Z,84.91
2016-08-02T02:22:37.460Z,84.62
2016-08-02T02:23:37.458Z,84.81
2016-08-02T02:24:37.453Z,84.52
2016-08-02T02:25:37.453Z,84.52
2016-08-02T02:26:37.446Z,84.62
2016-08-02T02:27:37.442Z,85.1
2016-08-02T02:28:37.439Z,85
2016-08-02T02:29:37.442Z,85.29
2016-08-02T02:30:37.428Z,85.58
2016-08-02T02:31:37.425Z,85.58
2016-08-02T02:32:37.422Z,85.58
2016-08-02T02:33:37.770Z,85.53
2016-08-02T02:34:37.964Z,85.05
2016-08-02T02:35:37.412Z,85.63
2016-08-02T02:36:37.655Z,85.19
2016-08-02T02:37:37.405Z,85.25
2016-08-02T02:38:37.397Z,85.53
2016-08-02T02:39:37.399Z,85.34
2016-08-02T02:40:37.397Z,85.53
2016-08-02T02:41:38.339Z,85.72
2016-08-02T02:42:37.685Z,85.44
2016-08-02T02:43:37.381Z,86.01
2016-08-02T02:44:37.373Z,86.1
2016-08-02T02:45:37.824Z,86.01
2016-08-02T02:46:37.367Z,86.3
2016-08-02T02:47:37.373Z,86.2
2016-08-02T02:48:37.360Z,86.2
2016-08-02T02:49:37.352Z,86.49
2016-08-02T02:50:37.353Z,86.3
2016-08-02T02:51:37.346Z,86.2
2016-08-02T02:52:37.343Z,86.87
2016-08-02T02:53:37.340Z,86.87
2016-08-02T02:54:37.334Z,86.68
2016-08-02T02:55:37.332Z,86.87
2016-08-02T02:56:37.333Z,87.15
2016-08-02T02:57:37.327Z,87.15
2016-08-02T02:58:37.327Z,86.87
2016-08-02T02:59:37.314Z,87.25
2016-08-02T03:00:37.310Z,87.44
2016-08-02T03:01:37.306Z,87.54
2016-08-02T03:02:37.313Z,87.63
2016-08-02T03:03:37.298Z,87.25
2016-08-02T03:04:37.294Z,87.54
2016-08-02T03:05:37.295Z,87.73
2016-08-02T03:06:37.286Z,87.63
2016-08-02T03:07:37.280Z,88.01
2016-08-02T03:08:37.281Z,87.54
2016-08-02T03:09:38.077Z,87.92
2016-08-02T03:10:37.863Z,87.97
2016-08-02T03:11:37.266Z,87.92
2016-08-02T03:12:37.838Z,88.07
2016-08-02T03:13:37.919Z,88.07
2016-08-02T03:14:37.253Z,88.11
2016-08-02T03:15:37.250Z,88.26
2016-08-02T03:16:37.245Z,88.64
2016-08-02T03:17:37.245Z,88.73
2016-08-02T03:18:37.236Z,88.54
2016-08-02T03:19:37.991Z,88.54
2016-08-02T03:20:38.414Z,88.54
2016-08-02T03:21:37.222Z,88.83
2016-08-02T03:22:37.616Z,88.73
2016-08-02T03:23:37.215Z,88.92
2016-08-02T03:24:37.211Z,89.31
2016-08-02T03:25:37.237Z,89.21
2016-08-02T03:26:37.258Z,88.92
2016-08-02T03:27:37.195Z,89.21
2016-08-02T03:28:37.193Z,89.12
2016-08-02T03:29:37.190Z,88.83
2016-08-02T03:30:37.186Z,88.73
2016-08-02T03:31:37.189Z,89.12
2016-08-02T03:32:37.178Z,89.59
2016-08-02T03:33:37.170Z,89.69
2016-08-02T03:34:37.165Z,89.5
2016-08-02T03:35:37.162Z,89.69
2016-08-02T03:36:37.156Z,89.4
2016-08-02T03:37:37.154Z,89.69
2016-08-02T03:38:37.155Z,89.69
2016-08-02T03:39:37.149Z,90.07
2016-08-02T03:40:37.140Z,89.97
2016-08-02T03:41:37.134Z,89.88
2016-08-02T03:42:37.128Z,89.97
2016-08-02T03:43:37.131Z,90.17
2016-08-02T03:44:37.123Z,90.07
2016-08-02T03:45:37.124Z,89.97
2016-08-02T03:46:37.119Z,90.36
2016-08-02T03:47:37.109Z,90.45
2016-08-02T03:48:37.109Z,90.45
2016-08-02T03:49:37.102Z,90.26
2016-08-02T03:50:37.098Z,90.45
2016-08-02T03:51:37.495Z,90.45
2016-08-02T03:52:37.091Z,90.45
2016-08-02T03:53:37.083Z,90.36
2016-08-02T03:54:37.479Z,90.26
2016-08-02T03:55:37.076Z,90.36
2016-08-02T03:56:37.226Z,90.36
2016-08-02T03:57:37.067Z,90.07
2016-08-02T03:58:37.059Z,90.55
2016-08-02T03:59:37.055Z,90.45
2016-08-02T04:00:37.555Z,90.45
2016-08-02T04:01:37.652Z,90.5
2016-08-02T04:02:52.061Z,90.4
2016-08-02T04:03:37.041Z,90.31
2016-08-02T04:04:37.336Z,90.5
2016-08-02T04:05:37.030Z,90.5
2016-08-02T04:06:37.027Z,90.31
2016-08-02T04:07:37.026Z,90.5
2016-08-02T04:08:37.022Z,90.31
2016-08-02T04:09:37.010Z,90.54
2016-08-02T04:10:37.009Z,89.97
2016-08-02T04:11:37.004Z,89.97
2016-08-02T04:12:37.006Z,90.25
2016-08-02T04:13:36.996Z,89.92
2016-08-02T04:14:37.001Z,89.06
2016-08-02T04:15:37.003Z,89.29
2016-08-02T04:16:36.990Z,88.43
2016-08-02T04:17:36.984Z,88.19
2016-08-02T04:18:36.978Z,88.29
2016-08-02T04:19:36.976Z,87.56
2016-08-02T04:20:36.981Z,87.18
2016-08-02T04:21:36.971Z,86.46
2016-08-02T04:22:36.968Z,85.88
2016-08-02T04:23:36.966Z,85.45
2016-08-02T04:24:36.964Z,84.88
2016-08-02T04:25:36.961Z,84.44
2016-08-02T04:26:36.957Z,83.86
2016-08-02T04:27:37.513Z,82.75
2016-08-02T04:28:38.477Z,82.18
2016-08-02T04:29:36.956Z,81.26
2016-08-02T04:30:36.966Z,80.91
2016-08-02T04:31:36.958Z,80.05
2016-08-02T04:32:37.147Z,79.99
2016-08-02T04:33:36.953Z,79.17
2016-08-02T04:34:36.953Z,78.11
2016-08-02T04:35:36.954Z,77.29
2016-08-02T04:36:38.557Z,76.65
2016-08-02T04:37:36.958Z,75.63
2016-08-02T04:38:37.880Z,75.34
2016-08-02T04:39:37.672Z,74.22
2016-08-02T04:40:36.953Z,73.07
2016-08-02T04:41:37.257Z,72.43
2016-08-02T04:42:37.138Z,71.79
2016-08-02T04:43:36.963Z,70.92
2016-08-02T04:44:36.964Z,70.48
2016-08-02T04:45:36.964Z,68.97
2016-08-02T04:46:36.970Z,68.49
2016-08-02T04:47:36.967Z,67.94
2016-08-02T04:48:36.978Z,67.36
2016-08-02T04:49:36.981Z,66.49
2016-08-02T04:50:36.981Z,66.2
2016-08-02T04:51:36.980Z,65.63
2016-08-02T04:52:36.985Z,65.43
2016-08-02T04:53:36.987Z,64.79
2016-08-02T04:54:36.997Z,64.08
2016-08-02T04:55:37.010Z,64.69
2016-08-02T04:56:37.003Z,63.63
2016-08-02T04:57:37.005Z,63.73
2016-08-02T04:58:37.008Z,63.73
2016-08-02T04:59:37.011Z,62.95
2016-08-02T05:00:37.015Z,62.18
2016-08-02T05:01:37.031Z,62.18
2016-08-02T05:02:37.023Z,62.08
2016-08-02T05:03:37.026Z,61.51
2016-08-02T05:04:37.032Z,61.25
2016-08-02T05:05:37.037Z,60.38
2016-08-02T05:06:37.044Z,60.31
2016-08-02T05:07:37.042Z,59.66
2016-08-02T05:08:37.054Z,59.38
2016-08-02T05:09:38.204Z,58.63
2016-08-02T05:10:37.760Z,58.07
2016-08-02T05:11:37.061Z,57.3
2016-08-02T05:12:37.072Z,56.56
2016-08-02T05:13:37.078Z,56
2016-08-02T05:14:37.182Z,55.93
2016-08-02T05:15:37.139Z,54.67
2016-08-02T05:16:37.094Z,53.83
2016-08-02T05:17:37.104Z,53.63
2016-08-02T05:18:37.114Z,52.5
2016-08-02T05:19:37.117Z,52.5
2016-08-02T05:20:37.872Z,52.11
2016-08-02T05:21:37.129Z,51.81
2016-08-02T05:22:37.137Z,51.62
2016-08-02T05:23:37.141Z,51.53
2016-08-02T05:24:37.152Z,51.62
2016-08-02T05:25:37.160Z,51.21
2016-08-02T05:26:37.171Z,51.01
2016-08-02T05:27:37.170Z,50.72
2016-08-02T05:28:37.178Z,50.82
2016-08-02T05:29:37.182Z,51.01
2016-08-02T05:30:37.196Z,50.36
2016-08-02T05:31:37.198Z,50.46
2016-08-02T05:32:37.204Z,49.71
2016-08-02T05:33:37.215Z,49.71
2016-08-02T05:34:37.221Z,48.75
2016-08-02T05:35:37.225Z,48.08
2016-08-02T05:36:37.237Z,47.91
2016-08-02T05:37:37.251Z,47.32
2016-08-02T05:38:37.251Z,47.05
2016-08-02T05:39:37.258Z,47.05
2016-08-02T05:40:37.269Z,45.81
2016-08-02T05:41:37.275Z,45.35
2016-08-02T05:42:37.289Z,44.98
2016-08-02T05:43:37.306Z,44.32
2016-08-02T05:44:37.301Z,44.03
2016-08-02T05:45:38.866Z,43.37
2016-08-02T05:46:37.324Z,43.29
2016-08-02T05:47:37.330Z,41.93
2016-08-02T05:48:37.341Z,41.63
2016-08-02T05:49:38.281Z,41.56
2016-08-02T05:50:37.363Z,41.35
2016-08-02T05:51:38.140Z,41.17
2016-08-02T05:52:37.386Z,40.88
2016-08-02T05:53:37.391Z,40.78
2016-08-02T05:54:38.439Z,40.39
2016-08-02T05:56:38.024Z,39.9
2016-08-02T05:57:38.735Z,39.1
2016-08-02T05:58:38.174Z,39.76
2016-08-02T05:59:37.444Z,40.16
2016-08-02T06:00:37.459Z,40.45
2016-08-02T06:01:37.464Z,40.55
2016-08-02T06:02:37.645Z,40.33
2016-08-02T06:03:37.487Z,40.42
2016-08-02T06:04:37.493Z,40.42
2016-08-02T06:05:37.505Z,40.42
2016-08-02T06:06:37.510Z,40.89
2016-08-02T06:07:37.519Z,40.8
2016-08-02T06:08:37.531Z,40.68
2016-08-02T06:09:37.543Z,41.06
2016-08-02T06:10:37.545Z,41.24
2016-08-02T06:11:37.556Z,41.34
2016-08-02T06:12:37.563Z,41.13
2016-08-02T06:13:37.570Z,41.32
2016-08-02T06:14:37.583Z,41.59
2016-08-02T06:15:37.590Z,41.69
2016-08-02T06:16:37.594Z,42.35
2016-08-02T06:17:37.605Z,42.54
2016-08-02T06:18:37.608Z,42.33
2016-08-02T06:19:37.620Z,42.91
2016-08-02T06:20:37.621Z,43.3
2016-08-02T06:21:37.632Z,43.66
2016-08-02T06:22:37.637Z,43.47
2016-08-02T06:23:37.649Z,44.03
2016-08-02T06:24:37.656Z,44.23
2016-08-02T06:25:37.660Z,44.59
2016-08-02T06:26:37.670Z,44.78
2016-08-02T06:27:39.119Z,44.98
2016-08-02T06:28:38.035Z,45.05
2016-08-02T06:29:37.687Z,45.44
2016-08-02T06:30:37.693Z,45.34
2016-08-02T06:31:37.693Z,45.54
2016-08-02T06:32:37.701Z,45.61
2016-08-02T06:33:37.856Z,46.19
2016-08-02T06:34:37.722Z,46.19
2016-08-02T06:35:37.726Z,46.77
2016-08-02T06:37:37.731Z,46.94
2016-08-02T06:38:37.740Z,47.14
2016-08-02T06:40:37.903Z,47.99
2016-08-02T06:41:37.809Z,47.67
2016-08-02T06:42:37.755Z,48.25
2016-08-02T06:43:37.762Z,48.52
2016-08-02T06:44:37.759Z,49.37
2016-08-02T06:45:37.771Z,49.55
2016-08-02T06:46:37.772Z,50.21
2016-08-02T06:47:37.773Z,51.65
2016-08-02T06:48:37.778Z,53.08
2016-08-02T06:49:37.782Z,54.88
2016-08-02T06:50:37.791Z,56.11
2016-08-02T06:51:37.793Z,57.27
2016-08-02T06:52:37.794Z,58.3
2016-08-02T06:53:37.795Z,59.55
2016-08-02T06:55:37.808Z,60.39
2016-08-02T06:56:37.810Z,59.81
2016-08-02T06:57:37.810Z,60.77
2016-08-02T06:58:37.807Z,61.13
2016-08-02T06:59:37.813Z,62
2016-08-02T07:00:37.824Z,61.9
2016-08-02T07:01:37.815Z,62.19
2016-08-02T07:02:37.819Z,62.38
2016-08-02T07:03:37.824Z,62.83
2016-08-02T07:04:39.734Z,63.12
2016-08-02T07:05:39.090Z,63.41
2016-08-02T07:06:37.826Z,63.7
2016-08-02T07:07:38.038Z,63.51
2016-08-02T07:08:37.832Z,63.79
2016-08-02T07:10:37.834Z,63.86
2016-08-02T07:11:37.829Z,64.82
2016-08-02T07:12:37.836Z,64.34
2016-08-02T07:13:39.351Z,65.01
2016-08-02T07:14:38.031Z,65.2
2016-08-02T07:15:37.835Z,65.69
2016-08-02T07:16:37.989Z,65.69
2016-08-02T07:17:38.077Z,66.36
2016-08-02T07:18:37.834Z,67.13
2016-08-02T07:19:38.202Z,67.03
2016-08-02T07:20:37.840Z,67.45
2016-08-02T07:21:37.881Z,67.13
2016-08-02T07:22:37.844Z,67.9
2016-08-02T07:23:37.842Z,67.99
2016-08-02T07:24:37.844Z,68.86
2016-08-02T07:25:37.843Z,68.38
2016-08-02T07:26:38.535Z,68.86
2016-08-02T07:27:37.842Z,69.24
2016-08-02T07:28:37.841Z,69.24
2016-08-02T07:29:37.850Z,70.4
2016-08-02T07:30:37.844Z,70.01
2016-08-02T07:31:37.841Z,70.11
2016-08-02T07:32:37.842Z,70.53
2016-08-02T07:33:37.841Z,70.53
2016-08-02T07:34:37.843Z,70.68
2016-08-02T07:35:37.844Z,70.88
2016-08-02T07:36:37.849Z,71.17
2016-08-02T07:37:37.847Z,70.92
2016-08-02T07:38:37.848Z,70.82
2016-08-02T07:39:37.848Z,70.59
2016-08-02T07:40:37.852Z,70.82
2016-08-02T07:41:37.848Z,70.72
2016-08-02T07:42:37.850Z,70.72
2016-08-02T07:43:37.849Z,69.85
2016-08-02T07:44:37.853Z,70.24
2016-08-02T07:45:38.751Z,69.95
2016-08-02T07:46:37.855Z,70.24
2016-08-02T07:47:37.865Z,69.67
2016-08-02T07:48:37.853Z,69.89
2016-08-02T07:49:38.253Z,69.31
2016-08-02T07:50:38.354Z,69.51
2016-08-02T07:51:38.158Z,69.7
2016-08-02T07:52:37.857Z,69.51
2016-08-02T07:53:37.856Z,69.02
2016-08-02T07:54:37.861Z,69.31
2016-08-02T07:55:38.666Z,69.35
2016-08-02T07:56:37.873Z,68.77
2016-08-02T07:57:37.862Z,68.87
2016-08-02T07:58:38.817Z,69.45
2016-08-02T07:59:37.866Z,69.48
2016-08-02T08:00:37.866Z,69.57
2016-08-02T08:01:37.866Z,69.57
2016-08-02T08:02:37.867Z,69.48
2016-08-02T08:03:37.872Z,70.41
2016-08-02T08:04:37.874Z,70.12
2016-08-02T08:05:37.870Z,69.73
2016-08-02T08:06:37.876Z,70.5
2016-08-02T08:07:37.888Z,70.79
2016-08-02T08:08:37.882Z,70.79
2016-08-02T08:09:37.881Z,71.08
2016-08-02T08:10:37.885Z,71.18
2016-08-02T08:11:37.881Z,70.5
2016-08-02T08:12:37.887Z,70.89
2016-08-02T08:13:37.883Z,71.28
2016-08-02T08:14:37.887Z,70.98
2016-08-02T08:15:37.891Z,70.89
2016-08-02T08:16:37.890Z,70.35
2016-08-02T08:17:37.890Z,70.54
2016-08-02T08:18:37.896Z,70.73
2016-08-02T08:19:37.895Z,70.25
2016-08-02T08:20:37.902Z,70.73
2016-08-02T08:21:37.902Z,70.73
2016-08-02T08:22:38.463Z,70.92
2016-08-02T08:23:39.016Z,71.12
2016-08-02T08:24:37.968Z,71.31
2016-08-02T08:25:37.907Z,71.12
2016-08-02T08:26:37.911Z,71.7
2016-08-02T08:27:37.911Z,71.76
2016-08-02T08:28:37.912Z,72.27
2016-08-02T08:29:37.918Z,72.63
2016-08-02T08:30:37.911Z,72.53
2016-08-02T08:31:39.047Z,73.39
2016-08-02T08:32:38.133Z,73.39
2016-08-02T08:33:37.916Z,73.1
2016-08-02T08:34:37.921Z,73.2
2016-08-02T08:35:38.124Z,73.14
2016-08-02T08:36:38.631Z,73.14
2016-08-02T08:37:38.083Z,73.43
2016-08-02T08:38:38.063Z,72.95
2016-08-02T08:39:37.930Z,73.24
2016-08-02T08:40:37.935Z,72.75
2016-08-02T08:41:37.933Z,72.66
2016-08-02T08:42:37.936Z,72.5
2016-08-02T08:43:37.938Z,72.31
2016-08-02T08:44:37.941Z,72.5
2016-08-02T08:45:37.944Z,72.6
2016-08-02T08:46:37.948Z,72.31
2016-08-02T08:47:37.947Z,71.92
2016-08-02T08:48:37.950Z,72.31
2016-08-02T08:49:37.951Z,71.09
2016-08-02T08:50:37.949Z,70.8
2016-08-02T08:51:37.960Z,71.09
2016-08-02T08:52:37.961Z,70.8
2016-08-02T08:53:37.961Z,70.42
2016-08-02T08:54:37.960Z,70.22
2016-08-02T08:55:37.963Z,70.51
2016-08-02T08:56:37.968Z,70.03
2016-08-02T08:57:37.973Z,70.22
2016-08-02T08:58:37.972Z,69.74
2016-08-02T08:59:37.985Z,69.29
2016-08-02T09:00:37.982Z,69.2
2016-08-02T09:01:37.985Z,69.04
2016-08-02T09:02:37.986Z,68.55
2016-08-02T09:03:38.139Z,68.46
2016-08-02T09:04:38.743Z,68.84
2016-08-02T09:05:37.989Z,68.26
2016-08-02T09:06:38.005Z,68.26
2016-08-02T09:07:37.998Z,68.07
2016-08-02T09:08:38.003Z,67.91
2016-08-02T09:09:38.005Z,66.94
2016-08-02T09:10:38.017Z,67.24
2016-08-02T09:11:38.016Z,66.46
2016-08-02T09:12:38.015Z,66.56
2016-08-02T09:13:38.821Z,66.36
2016-08-02T09:14:38.122Z,66.27
2016-08-02T09:15:38.580Z,65.78
2016-08-02T09:16:38.034Z,65.5
2016-08-02T09:17:38.041Z,65.78
2016-08-02T09:18:38.191Z,65.14
2016-08-02T09:19:38.044Z,65.05
2016-08-02T09:20:38.047Z,64.47
2016-08-02T09:21:38.057Z,63.98
2016-08-02T09:22:38.058Z,63.5
2016-08-02T09:23:38.060Z,63.34
2016-08-02T09:24:38.059Z,63.05
2016-08-02T09:25:38.064Z,63.14
2016-08-02T09:26:38.074Z,62.18
2016-08-02T09:27:38.070Z,62.11
2016-08-02T09:28:38.077Z,61.3
2016-08-02T09:29:38.079Z,61.3
2016-08-02T09:30:38.086Z,61.37
2016-08-02T09:31:38.098Z,61.57
2016-08-02T09:32:38.095Z,61.47
2016-08-02T09:33:38.098Z,61.47
2016-08-02T09:34:38.107Z,61.44
2016-08-02T09:35:38.109Z,61.73
2016-08-02T09:36:38.118Z,62.02
2016-08-02T09:37:38.117Z,62.31
2016-08-02T09:38:38.122Z,62.15
2016-08-02T09:39:38.123Z,62.05
2016-08-02T09:40:39.169Z,61.95
2016-08-02T09:41:38.800Z,61.95
2016-08-02T09:42:38.806Z,62.15
2016-08-02T09:43:38.642Z,62.44
2016-08-02T09:44:38.159Z,62.34
2016-08-02T09:45:38.575Z,62.82
2016-08-02T09:46:38.561Z,63.21
2016-08-02T09:47:38.159Z,63.02
2016-08-02T09:48:38.172Z,63.21
2016-08-02T09:49:38.175Z,63.08
2016-08-02T09:50:39.656Z,63.56
2016-08-02T09:51:38.182Z,62.89
2016-08-02T09:52:38.550Z,62.95
2016-08-02T09:53:38.513Z,63.53
2016-08-02T09:54:38.198Z,63.05
2016-08-02T09:55:38.199Z,62.86
2016-08-02T09:56:38.202Z,63.43
2016-08-02T09:57:38.209Z,63.34
2016-08-02T09:58:38.213Z,63.15
2016-08-02T09:59:38.236Z,63.34
2016-08-02T10:00:38.221Z,63.15
2016-08-02T10:01:38.224Z,63.31
2016-08-02T10:02:38.226Z,63.31
2016-08-02T10:03:38.232Z,63.73
2016-08-02T10:04:38.239Z,63.7
2016-08-02T10:05:38.237Z,63.7
2016-08-02T10:06:38.244Z,63.63
2016-08-02T10:07:38.252Z,63.4
2016-08-02T10:08:38.255Z,63.5
2016-08-02T10:09:38.257Z,63.6
2016-08-02T10:10:38.270Z,63.7
2016-08-02T10:11:38.260Z,63.5
2016-08-02T10:12:38.269Z,63.89
2016-08-02T10:13:38.272Z,63.6
2016-08-02T10:14:38.268Z,63.79
2016-08-02T10:15:38.273Z,63.6
2016-08-02T10:16:38.280Z,63.7
2016-08-02T10:17:38.287Z,63.85
2016-08-02T10:18:38.286Z,63.57
2016-08-02T10:19:38.288Z,63.76
2016-08-02T10:20:38.303Z,63.95
2016-08-02T10:21:53.215Z,63.7
2016-08-02T10:22:38.298Z,63.89
2016-08-02T10:23:38.304Z,63.4
2016-08-02T10:24:39.106Z,63.4
2016-08-02T10:25:38.310Z,63.31
2016-08-02T10:26:38.315Z,62.92
2016-08-02T10:27:38.315Z,63.02
2016-08-02T10:28:38.319Z,63.12
2016-08-02T10:29:38.321Z,63.4
2016-08-02T10:30:38.328Z,63.31
2016-08-02T10:31:39.431Z,62.95
2016-08-02T10:32:39.033Z,62.76
2016-08-02T10:34:38.340Z,62.57
2016-08-02T10:35:38.346Z,62.28
2016-08-02T10:36:38.349Z,61.99
2016-08-02T10:37:38.351Z,61.99
2016-08-02T10:38:38.356Z,61.7
2016-08-02T10:39:38.360Z,61.54
2016-08-02T10:40:38.365Z,61.25
2016-08-02T10:41:39.072Z,60.57
2016-08-02T10:42:38.390Z,60.18
2016-08-02T10:43:38.374Z,60.09
2016-08-02T10:44:38.385Z,60.41
2016-08-02T10:45:38.400Z,60.11
2016-08-02T10:46:38.389Z,59.47
2016-08-02T10:47:38.395Z,59.38
2016-08-02T10:48:38.397Z,59.59
2016-08-02T10:49:38.403Z,59.59
2016-08-02T10:50:38.412Z,59.4
2016-08-02T10:51:38.411Z,59.23
2016-08-02T10:52:38.421Z,58.27
2016-08-02T10:53:38.425Z,59.05
2016-08-02T10:54:38.437Z,58.85
2016-08-02T10:55:38.433Z,58.47
2016-08-02T10:56:38.439Z,58.3
2016-08-02T10:57:38.446Z,57.71
2016-08-02T10:58:38.451Z,57.43
2016-08-02T10:59:39.973Z,56.46
2016-08-02T11:00:39.357Z,56.46
2016-08-02T11:01:38.464Z,55.98
2016-08-02T11:02:38.476Z,56.07
2016-08-02T11:03:38.476Z,55.68
2016-08-02T11:04:38.485Z,55.58
2016-08-02T11:05:38.494Z,55.32
2016-08-02T11:06:38.493Z,55.04
2016-08-02T11:07:39.233Z,55.04
2016-08-02T11:08:38.650Z,54.94
2016-08-02T11:09:38.514Z,54.86
2016-08-02T11:10:39.697Z,55.16
2016-08-02T11:11:38.525Z,55.83
2016-08-02T11:12:38.530Z,56.13
2016-08-02T11:13:38.809Z,57
2016-08-02T11:14:38.543Z,56.77
2016-08-02T11:15:38.552Z,57.84
2016-08-02T11:16:38.558Z,57.55
2016-08-02T11:17:38.560Z,57.75
2016-08-02T11:18:38.572Z,57.78
2016-08-02T11:19:38.577Z,57.39
2016-08-02T11:20:38.578Z,57.09
2016-08-02T11:21:38.589Z,56.71
2016-08-02T11:22:38.593Z,56.25
2016-08-02T11:23:38.602Z,55.38
2016-08-02T11:24:38.613Z,54.8
2016-08-02T11:26:38.621Z,53.89
2016-08-02T11:27:38.630Z,53.73
2016-08-02T11:28:38.637Z,53.34
2016-08-02T11:29:38.646Z,53.47
2016-08-02T11:30:38.648Z,52.59
2016-08-02T11:31:38.663Z,52.59
2016-08-02T11:32:38.664Z,52.78
2016-08-02T11:33:38.675Z,52.4
2016-08-02T11:34:38.675Z,52.88
2016-08-02T11:35:38.683Z,52.76
2016-08-02T11:36:38.688Z,52.76
2016-08-02T11:37:38.698Z,52.69
2016-08-02T11:38:38.709Z,52.88
2016-08-02T11:39:38.710Z,52.86
2016-08-02T11:41:38.725Z,52.11
2016-08-02T11:42:39.481Z,52.3
2016-08-02T11:43:38.740Z,51.98
2016-08-02T11:44:39.194Z,52.08
2016-08-02T11:45:39.252Z,51.76
2016-08-02T11:46:38.761Z,51.57
2016-08-02T11:47:38.768Z,51.74
2016-08-02T11:48:38.769Z,51.84
2016-08-02T11:49:38.779Z,52
2016-08-02T11:50:38.778Z,52.56
2016-08-02T11:51:39.735Z,52.44
2016-08-02T11:52:39.043Z,53.21
2016-08-02T11:53:38.796Z,53.31
2016-08-02T11:54:38.802Z,53.21
2016-08-02T11:56:38.815Z,53.41
2016-08-02T11:57:38.826Z,53.31
2016-08-02T11:58:38.833Z,53.11
2016-08-02T11:59:38.831Z,53.77
2016-08-02T12:00:38.835Z,53.96
2016-08-02T12:01:38.846Z,53.79
2016-08-02T12:02:38.845Z,54.35
2016-08-02T12:03:38.851Z,54.63
2016-08-02T12:04:38.859Z,54.35
2016-08-02T12:05:38.858Z,54.25
2016-08-02T12:06:38.873Z,54.53
2016-08-02T12:07:38.870Z,54.35
2016-08-02T12:08:38.873Z,54.27
2016-08-02T12:09:38.885Z,54.47
2016-08-02T12:10:38.886Z,54.35
2016-08-02T12:11:38.894Z,54.44
2016-08-02T12:12:38.898Z,54.83
2016-08-02T12:13:38.897Z,54.63
2016-08-02T12:14:38.911Z,54.83
2016-08-02T12:15:38.913Z,54.73
2016-08-02T12:16:38.913Z,54.99
2016-08-02T12:17:39.380Z,55.87
2016-08-02T12:18:39.455Z,55.77
2016-08-02T12:19:39.258Z,55.67
2016-08-02T12:20:39.638Z,55.57
2016-08-02T12:21:39.748Z,55.96
2016-08-02T12:22:39.390Z,56.13
2016-08-02T12:23:38.945Z,55.83
2016-08-02T12:24:38.950Z,55.83
2016-08-02T12:25:38.955Z,55.83
2016-08-02T12:26:38.956Z,56.05
2016-08-02T12:27:38.965Z,56.15
2016-08-02T12:28:38.972Z,56.15
2016-08-02T12:29:39.700Z,56.03
2016-08-02T12:30:38.975Z,56.13
2016-08-02T12:31:38.982Z,55.93
2016-08-02T12:32:39.325Z,56.13
2016-08-02T12:33:38.991Z,56.22
2016-08-02T12:34:38.989Z,56.22
2016-08-02T12:35:39.004Z,56.41
2016-08-02T12:36:39.008Z,56.22
2016-08-02T12:37:39.013Z,56.32
2016-08-02T12:38:39.009Z,56.22
2016-08-02T12:39:39.021Z,56.13
2016-08-02T12:40:39.021Z,56.58
2016-08-02T12:41:39.022Z,56.48
2016-08-02T12:42:39.028Z,56.41
2016-08-02T12:43:39.032Z,56.41
2016-08-02T12:44:39.031Z,56.32
2016-08-02T12:45:39.040Z,56.51
2016-08-02T12:46:39.042Z,56.61
2016-08-02T12:47:39.042Z,56.41
2016-08-02T12:48:39.051Z,56.51
2016-08-02T12:49:39.046Z,56.51
2016-08-02T12:50:39.052Z,56.41
2016-08-02T12:51:39.054Z,56.61
2016-08-02T12:52:39.060Z,56.32
2016-08-02T12:53:39.062Z,56.22
2016-08-02T12:54:39.071Z,56.22
2016-08-02T12:55:39.070Z,55.93
2016-08-02T12:56:39.076Z,56.22
2016-08-02T12:57:39.074Z,56.58
2016-08-02T12:58:39.337Z,56.68
2016-08-02T12:59:39.588Z,56.39
2016-08-02T13:00:39.089Z,56.48
2016-08-02T13:01:39.094Z,56.51
2016-08-02T13:02:39.249Z,57.06
2016-08-02T13:03:39.103Z,56.8
2016-08-02T13:04:39.104Z,56.71
2016-08-02T13:05:39.110Z,57.29
2016-08-02T13:06:39.107Z,57.29
2016-08-02T13:07:40.475Z,56.99
2016-08-02T13:08:39.121Z,57.41
2016-08-02T13:09:39.124Z,57.29
2016-08-02T13:10:39.121Z,57.03
2016-08-02T13:11:54.044Z,56.93